createdAt,value
2018-05-26T00:00:13.543Z,16.16
2018-05-26T00:01:13.541Z,16.09
2018-05-26T00:02:13.543Z,16.18
2018-05-26T00:03:13.543Z,16.10
2018-05-26T00:04:13.546Z,16.03
2018-05-26T00:05:13.556Z,16.08
2018-05-26T00:06:13.549Z,16.05
2018-05-26T00:07:13.553Z,16.00
2018-05-26T00:08:13.553Z,16.05
2018-05-26T00:09:13.554Z,15.92
2018-05-26T00:10:13.555Z,16.02
2018-05-26T00:11:13.557Z,16.02
2018-05-26T00:12:13.560Z,15.98
2018-05-26T00:13:13.561Z,16.06
2018-05-26T00:14:13.562Z,15.99
2018-05-26T00:15:13.565Z,15.99
2018-05-26T00:16:13.566Z,15.92
2018-05-26T00:17:13.569Z,15.90
2018-05-26T00:18:13.569Z,15.92
2018-05-26T00:19:13.572Z,15.90
2018-05-26T00:20:13.573Z,15.96
2018-05-26T00:21:13.575Z,15.94
2018-05-26T00:22:13.576Z,15.92
2018-05-26T00:23:13.577Z,15.90
2018-05-26T00:24:13.578Z,15.85
2018-05-26T00:25:13.581Z,15.83
2018-05-26T00:26:13.580Z,15.91
2018-05-26T00:27:13.583Z,15.85
2018-05-26T00:28:13.585Z,15.84
2018-05-26T00:29:13.592Z,15.85
2018-05-26T00:30:13.587Z,15.72
2018-05-26T00:31:13.589Z,15.80
2018-05-26T00:32:13.591Z,15.70
2018-05-26T00:33:13.592Z,15.73
2018-05-26T00:34:13.594Z,15.65
2018-05-26T00:35:13.596Z,15.72
2018-05-26T00:36:13.597Z,15.70
2018-05-26T00:38:13.598Z,15.60
2018-05-26T00:39:13.600Z,15.62
2018-05-26T00:40:13.601Z,15.65
2018-05-26T00:41:13.604Z,15.72
2018-05-26T00:42:13.603Z,15.69
2018-05-26T00:43:13.606Z,15.72
2018-05-26T00:44:13.608Z,15.63
2018-05-26T00:45:13.609Z,15.63
2018-05-26T00:46:13.610Z,15.55
2018-05-26T00:47:13.616Z,15.51
2018-05-26T00:48:13.613Z,15.45
2018-05-26T00:49:13.638Z,15.45
2018-05-26T00:50:13.616Z,15.41
2018-05-26T00:51:13.616Z,15.44
2018-05-26T00:52:13.618Z,15.39
2018-05-26T00:53:13.620Z,15.37
2018-05-26T00:54:13.619Z,15.43
2018-05-26T00:55:13.621Z,15.43
2018-05-26T00:56:13.623Z,15.35
2018-05-26T00:57:13.624Z,15.44
2018-05-26T00:58:13.626Z,15.59
2018-05-26T00:59:13.627Z,15.44
2018-05-26T01:00:13.630Z,15.52
2018-05-26T01:01:13.628Z,15.45
2018-05-26T01:02:13.629Z,15.41
2018-05-26T01:03:13.631Z,15.39
2018-05-26T01:04:13.633Z,15.41
2018-05-26T01:05:13.636Z,15.51
2018-05-26T01:06:13.635Z,15.44
2018-05-26T01:07:13.636Z,15.43
2018-05-26T01:08:13.637Z,15.33
2018-05-26T01:09:13.640Z,15.41
2018-05-26T01:10:13.639Z,15.44
2018-05-26T01:11:13.640Z,15.45
2018-05-26T01:12:13.643Z,15.41
2018-05-26T01:13:13.646Z,15.47
2018-05-26T01:14:13.645Z,15.47
2018-05-26T01:15:13.646Z,15.39
2018-05-26T01:16:13.647Z,15.47
2018-05-26T01:17:13.649Z,15.45
2018-05-26T01:18:13.649Z,15.43
2018-05-26T01:19:13.651Z,15.39
2018-05-26T01:20:13.653Z,15.47
2018-05-26T01:21:13.654Z,15.44
2018-05-26T01:22:13.656Z,15.47
2018-05-26T01:23:13.655Z,15.43
2018-05-26T01:24:13.656Z,15.43
2018-05-26T01:25:13.658Z,15.35
2018-05-26T01:26:13.658Z,15.30
2018-05-26T01:27:13.660Z,15.32
2018-05-26T01:28:13.661Z,15.29
2018-05-26T01:29:13.663Z,15.27
2018-05-26T01:30:13.665Z,15.35
2018-05-26T01:31:13.663Z,15.30
2018-05-26T01:32:13.666Z,15.29
2018-05-26T01:33:13.668Z,15.33
2018-05-26T01:34:13.668Z,15.30
2018-05-26T01:35:13.669Z,15.33
2018-05-26T01:36:13.671Z,15.33
2018-05-26T01:37:13.672Z,15.29
2018-05-26T01:38:13.672Z,15.32
2018-05-26T01:39:13.674Z,15.26
2018-05-26T01:40:13.678Z,15.17
2018-05-26T01:41:13.676Z,15.22
2018-05-26T01:42:13.676Z,15.15
2018-05-26T01:43:13.679Z,15.19
2018-05-26T01:44:13.680Z,15.17
2018-05-26T01:45:13.681Z,15.14
2018-05-26T01:46:13.681Z,15.12
2018-05-26T01:47:13.684Z,15.15
2018-05-26T01:48:13.683Z,15.17
2018-05-26T01:49:13.685Z,15.14
2018-05-26T01:50:13.687Z,15.23
2018-05-26T01:51:13.686Z,15.17
2018-05-26T01:52:13.687Z,15.26
2018-05-26T01:53:13.689Z,15.25
2018-05-26T01:54:13.688Z,15.15
2018-05-26T01:55:13.691Z,15.05
2018-05-26T01:56:13.692Z,15.10
2018-05-26T01:57:13.692Z,15.04
2018-05-26T01:58:13.692Z,15.10
2018-05-26T01:59:13.695Z,15.00
2018-05-26T02:00:13.698Z,15.08
2018-05-26T02:01:13.696Z,15.02
2018-05-26T02:02:13.697Z,15.08
2018-05-26T02:03:13.699Z,15.04
2018-05-26T02:04:13.700Z,15.10
2018-05-26T02:05:13.699Z,15.15
2018-05-26T02:06:13.700Z,15.00
2018-05-26T02:07:13.703Z,15.05
2018-05-26T02:08:13.702Z,15.08
2018-05-26T02:09:13.705Z,14.99
2018-05-26T02:10:13.704Z,14.90
2018-05-26T02:11:13.705Z,14.92
2018-05-26T02:12:13.706Z,14.96
2018-05-26T02:13:13.708Z,14.86
2018-05-26T02:14:13.708Z,14.90
2018-05-26T02:15:13.709Z,14.74
2018-05-26T02:16:13.710Z,14.73
2018-05-26T02:17:13.711Z,14.74
2018-05-26T02:18:13.711Z,14.74
2018-05-26T02:19:13.713Z,14.66
2018-05-26T02:20:13.714Z,14.56
2018-05-26T02:21:13.715Z,14.63
2018-05-26T02:22:13.714Z,14.66
2018-05-26T02:23:13.716Z,14.59
2018-05-26T02:24:13.716Z,14.67
2018-05-26T02:25:13.718Z,14.67
2018-05-26T02:26:13.721Z,14.59
2018-05-26T02:27:13.719Z,14.61
2018-05-26T02:28:13.720Z,14.61
2018-05-26T02:29:13.721Z,14.61
2018-05-26T02:30:13.721Z,14.59
2018-05-26T02:31:13.723Z,14.58
2018-05-26T02:32:13.724Z,14.66
2018-05-26T02:33:13.724Z,14.70
2018-05-26T02:34:13.725Z,14.66
2018-05-26T02:35:13.726Z,14.70
2018-05-26T02:36:13.731Z,14.56
2018-05-26T02:37:13.730Z,14.70
2018-05-26T02:38:13.728Z,14.61
2018-05-26T02:39:13.728Z,14.70
2018-05-26T02:40:13.729Z,14.66
2018-05-26T02:41:13.730Z,14.63
2018-05-26T02:42:13.730Z,14.52
2018-05-26T02:43:13.732Z,14.62
2018-05-26T02:44:13.733Z,14.59
2018-05-26T02:45:13.732Z,14.62
2018-05-26T02:46:13.733Z,14.67
2018-05-26T02:47:13.737Z,14.59
2018-05-26T02:48:13.735Z,14.68
2018-05-26T02:49:13.736Z,14.53
2018-05-26T02:50:13.736Z,14.52
2018-05-26T02:51:13.738Z,14.51
2018-05-26T02:52:13.738Z,14.45
2018-05-26T02:53:13.739Z,14.48
2018-05-26T02:54:13.737Z,14.41
2018-05-26T02:55:13.740Z,14.45
2018-05-26T02:56:13.740Z,14.37
2018-05-26T02:57:13.746Z,14.41
2018-05-26T02:58:13.741Z,14.37
2018-05-26T02:59:13.741Z,14.38
2018-05-26T03:00:13.743Z,14.41
2018-05-26T03:01:13.744Z,14.43
2018-05-26T03:02:13.744Z,14.45
2018-05-26T03:03:13.745Z,14.45
2018-05-26T03:04:13.746Z,14.45
2018-05-26T03:05:13.746Z,14.43
2018-05-26T03:06:13.747Z,14.51
2018-05-26T03:07:13.746Z,14.43
2018-05-26T03:08:13.748Z,14.44
2018-05-26T03:09:13.748Z,14.41
2018-05-26T03:10:13.747Z,14.49
2018-05-26T03:11:13.756Z,14.51
2018-05-26T03:12:13.749Z,14.53
2018-05-26T03:13:13.750Z,14.49
2018-05-26T03:14:13.750Z,14.48
2018-05-26T03:15:13.752Z,14.48
2018-05-26T03:16:13.752Z,14.45
2018-05-26T03:17:13.753Z,14.41
2018-05-26T03:18:13.755Z,14.44
2018-05-26T03:19:13.753Z,14.43
2018-05-26T03:20:13.755Z,14.37
2018-05-26T03:21:13.765Z,14.36
2018-05-26T03:22:13.753Z,14.37
2018-05-26T03:23:13.755Z,14.43
2018-05-26T03:24:13.755Z,14.33
2018-05-26T03:25:13.757Z,14.40
2018-05-26T03:26:13.758Z,14.23
2018-05-26T03:27:13.760Z,14.30
2018-05-26T03:28:13.759Z,14.36
2018-05-26T03:29:13.760Z,14.33
2018-05-26T03:30:13.760Z,14.43
2018-05-26T03:31:13.760Z,14.34
2018-05-26T03:32:13.760Z,14.31
2018-05-26T03:33:13.762Z,14.34
2018-05-26T03:34:13.761Z,14.25
2018-05-26T03:35:13.762Z,14.34
2018-05-26T03:36:13.763Z,14.36
2018-05-26T03:37:13.762Z,14.37
2018-05-26T03:38:13.763Z,14.31
2018-05-26T03:39:13.763Z,14.31
2018-05-26T03:40:13.763Z,14.34
2018-05-26T03:41:13.765Z,14.37
2018-05-26T03:42:13.763Z,14.36
2018-05-26T03:43:13.765Z,14.26
2018-05-26T03:44:13.766Z,14.28
2018-05-26T03:45:13.765Z,14.22
2018-05-26T03:46:13.766Z,14.15
2018-05-26T03:47:13.765Z,14.18
2018-05-26T03:48:13.767Z,14.18
2018-05-26T03:49:13.768Z,14.13
2018-05-26T03:50:13.768Z,14.18
2018-05-26T03:51:13.768Z,14.15
2018-05-26T03:52:13.769Z,14.12
2018-05-26T03:53:13.773Z,14.11
2018-05-26T03:54:13.769Z,14.08
2018-05-26T03:55:13.770Z,14.15
2018-05-26T03:56:13.771Z,14.12
2018-05-26T03:57:13.771Z,14.00
2018-05-26T03:58:13.771Z,14.04
2018-05-26T03:59:13.771Z,14.00
2018-05-26T04:00:13.772Z,14.12
2018-05-26T04:01:13.777Z,14.04
2018-05-26T04:02:13.772Z,14.03
2018-05-26T04:03:13.773Z,14.05
2018-05-26T04:04:13.774Z,14.01
2018-05-26T04:05:13.774Z,14.12
2018-05-26T04:06:13.774Z,14.04
2018-05-26T04:07:13.773Z,14.03
2018-05-26T04:08:13.774Z,14.03
2018-05-26T04:09:13.776Z,14.08
2018-05-26T04:10:13.780Z,14.04
2018-05-26T04:11:13.780Z,14.00
2018-05-26T04:12:13.779Z,14.07
2018-05-26T04:13:13.776Z,14.04
2018-05-26T04:14:13.777Z,14.04
2018-05-26T04:15:13.777Z,14.03
2018-05-26T04:16:13.778Z,14.08
2018-05-26T04:17:13.779Z,14.16
2018-05-26T04:18:13.778Z,14.23
2018-05-26T04:19:13.779Z,14.20
2018-05-26T04:20:13.780Z,14.20
2018-05-26T04:21:13.780Z,14.15
2018-05-26T04:22:13.779Z,14.20
2018-05-26T04:23:13.779Z,14.25
2018-05-26T04:24:13.782Z,14.34
2018-05-26T04:25:13.785Z,14.25
2018-05-26T04:26:13.783Z,14.23
2018-05-26T04:27:13.785Z,14.19
2018-05-26T04:28:13.829Z,14.22
2018-05-26T04:29:13.782Z,14.31
2018-05-26T04:30:13.782Z,14.26
2018-05-26T04:31:13.782Z,14.25
2018-05-26T04:32:13.784Z,14.31
2018-05-26T04:33:13.784Z,14.31
2018-05-26T04:34:13.783Z,14.33
2018-05-26T04:35:13.785Z,14.40
2018-05-26T04:36:13.784Z,14.34
2018-05-26T04:37:13.786Z,14.30
2018-05-26T04:38:13.785Z,14.36
2018-05-26T04:39:13.793Z,14.36
2018-05-26T04:40:13.787Z,14.41
2018-05-26T04:41:13.788Z,14.41
2018-05-26T04:42:13.787Z,14.44
2018-05-26T04:43:13.789Z,14.43
2018-05-26T04:44:13.790Z,14.43
2018-05-26T04:45:13.791Z,14.43
2018-05-26T04:46:13.789Z,14.43
2018-05-26T04:47:13.789Z,14.52
2018-05-26T04:48:13.790Z,14.58
2018-05-26T04:49:13.793Z,14.58
2018-05-26T04:50:13.791Z,14.52
2018-05-26T04:51:13.793Z,14.52
2018-05-26T04:52:13.793Z,14.53
2018-05-26T04:53:13.794Z,14.52
2018-05-26T04:54:13.794Z,14.61
2018-05-26T04:55:13.798Z,14.59
2018-05-26T04:56:13.796Z,14.73
2018-05-26T04:57:13.795Z,14.70
2018-05-26T04:58:13.798Z,14.70
2018-05-26T04:59:13.798Z,14.71
2018-05-26T05:00:13.803Z,14.77
2018-05-26T05:01:13.799Z,14.81
2018-05-26T05:02:13.800Z,14.82
2018-05-26T05:03:13.801Z,14.89
2018-05-26T05:04:13.801Z,14.81
2018-05-26T05:05:13.804Z,14.96
2018-05-26T05:06:13.803Z,14.97
2018-05-26T05:07:13.804Z,15.00
2018-05-26T05:08:13.804Z,15.10
2018-05-26T05:09:13.806Z,15.02
2018-05-26T05:10:13.806Z,15.07
2018-05-26T05:11:13.814Z,15.15
2018-05-26T05:12:13.813Z,15.17
2018-05-26T05:13:13.809Z,15.14
2018-05-26T05:14:13.809Z,15.17
2018-05-26T05:15:13.811Z,15.11
2018-05-26T05:16:13.810Z,15.25
2018-05-26T05:17:13.813Z,15.26
2018-05-26T05:18:13.815Z,15.32
2018-05-26T05:19:13.814Z,15.32
2018-05-26T05:20:13.815Z,15.39
2018-05-26T05:21:13.817Z,15.41
2018-05-26T05:22:13.817Z,15.41
2018-05-26T05:23:13.820Z,15.44
2018-05-26T05:24:13.820Z,15.43
2018-05-26T05:25:13.820Z,15.41
2018-05-26T05:26:13.822Z,15.41
2018-05-26T05:27:13.824Z,15.57
2018-05-26T05:28:13.824Z,15.54
2018-05-26T05:29:13.827Z,15.59
2018-05-26T05:30:13.825Z,15.63
2018-05-26T05:31:13.828Z,15.63
2018-05-26T05:32:13.829Z,15.75
2018-05-26T05:33:13.830Z,15.76
2018-05-26T05:34:13.832Z,15.84
2018-05-26T05:35:13.833Z,15.90
2018-05-26T05:36:13.833Z,15.84
2018-05-26T05:37:13.840Z,15.94
2018-05-26T05:38:13.837Z,16.02
2018-05-26T05:39:13.837Z,16.00
2018-05-26T05:40:13.841Z,15.98
2018-05-26T05:41:13.842Z,16.06
2018-05-26T05:42:13.848Z,16.13
2018-05-26T05:43:13.845Z,16.16
2018-05-26T05:44:13.845Z,16.22
2018-05-26T05:45:13.848Z,16.26
2018-05-26T05:46:13.848Z,16.32
2018-05-26T05:47:13.850Z,16.43
2018-05-26T05:48:13.851Z,16.51
2018-05-26T05:49:13.854Z,16.58
2018-05-26T05:50:13.855Z,16.62
2018-05-26T05:51:13.856Z,16.66
2018-05-26T05:52:13.860Z,16.69
2018-05-26T05:53:13.860Z,16.62
2018-05-26T05:54:13.862Z,16.68
2018-05-26T05:55:13.863Z,16.73
2018-05-26T05:56:13.900Z,16.76
2018-05-26T05:57:13.866Z,16.92
2018-05-26T05:58:13.868Z,16.80
2018-05-26T05:59:13.871Z,16.94
2018-05-26T06:00:13.872Z,17.01
2018-05-26T06:01:13.874Z,16.97
2018-05-26T06:02:13.876Z,17.10
2018-05-26T06:03:13.879Z,16.98
2018-05-26T06:04:13.881Z,17.13
2018-05-26T06:05:13.883Z,17.22
2018-05-26T06:06:13.885Z,17.24
2018-05-26T06:07:13.885Z,17.32
2018-05-26T06:08:13.889Z,17.34
2018-05-26T06:09:13.892Z,17.42
2018-05-26T06:10:13.892Z,17.52
2018-05-26T06:11:13.895Z,17.54
2018-05-26T06:12:13.896Z,17.66
2018-05-26T06:13:13.900Z,17.73
2018-05-26T06:14:13.901Z,17.72
2018-05-26T06:15:13.959Z,17.82
2018-05-26T06:16:13.906Z,17.82
2018-05-26T06:17:13.911Z,17.93
2018-05-26T06:18:13.912Z,18.00
2018-05-26T06:19:13.913Z,17.97
2018-05-26T06:20:13.920Z,18.00
2018-05-26T06:21:13.919Z,18.02
2018-05-26T06:22:13.920Z,18.09
2018-05-26T06:23:13.924Z,18.15
2018-05-26T06:24:13.927Z,18.18
2018-05-26T06:25:13.931Z,18.15
2018-05-26T06:26:13.962Z,18.19
2018-05-26T06:27:13.936Z,18.23
2018-05-26T06:28:13.936Z,18.27
2018-05-26T06:29:13.940Z,18.28
2018-05-26T06:30:13.943Z,18.37
2018-05-26T06:31:13.945Z,18.43
2018-05-26T06:32:13.947Z,18.36
2018-05-26T06:33:13.950Z,18.45
2018-05-26T06:34:13.953Z,18.51
2018-05-26T06:35:13.956Z,18.58
2018-05-26T06:36:13.959Z,18.67
2018-05-26T06:37:13.962Z,18.66
2018-05-26T06:38:13.964Z,18.70
2018-05-26T06:39:13.968Z,18.85
2018-05-26T06:40:13.971Z,18.85
2018-05-26T06:41:13.975Z,18.88
2018-05-26T06:42:13.977Z,18.89
2018-05-26T06:43:14.002Z,18.92
2018-05-26T06:44:13.984Z,18.96
2018-05-26T06:45:14.002Z,18.96
2018-05-26T06:46:13.991Z,19.08
2018-05-26T06:47:13.995Z,19.08
2018-05-26T06:48:13.996Z,19.19
2018-05-26T06:49:14.006Z,19.24
2018-05-26T06:50:14.004Z,19.30
2018-05-26T06:51:14.009Z,19.47
2018-05-26T06:52:14.010Z,19.42
2018-05-26T06:53:14.013Z,19.48
2018-05-26T06:54:14.017Z,19.41
2018-05-26T06:55:14.021Z,19.44
2018-05-26T06:56:14.023Z,19.48
2018-05-26T06:57:14.034Z,19.48
2018-05-26T06:58:14.037Z,19.52
2018-05-26T06:59:14.036Z,19.62
2018-05-26T07:00:14.078Z,19.66
2018-05-26T07:01:14.043Z,19.81
2018-05-26T07:02:14.046Z,19.79
2018-05-26T07:03:14.053Z,19.74
2018-05-26T07:04:14.058Z,19.84
2018-05-26T07:05:14.059Z,19.70
2018-05-26T07:06:14.061Z,19.63
2018-05-26T07:07:14.068Z,19.49
2018-05-26T07:08:14.069Z,19.45
2018-05-26T07:09:14.073Z,19.48
2018-05-26T07:10:14.076Z,19.53
2018-05-26T07:11:14.080Z,19.47
2018-05-26T07:12:14.084Z,19.62
2018-05-26T07:13:14.091Z,19.72
2018-05-26T07:14:14.092Z,19.72
2018-05-26T07:15:14.095Z,19.87
2018-05-26T07:16:14.100Z,19.90
2018-05-26T07:17:14.104Z,19.97
2018-05-26T07:18:14.107Z,20.07
2018-05-26T07:19:14.111Z,20.22
2018-05-26T07:20:14.115Z,20.67
2018-05-26T07:21:14.120Z,20.98
2018-05-26T07:22:14.125Z,21.17
2018-05-26T07:23:14.129Z,21.29
2018-05-26T07:24:14.135Z,21.45
2018-05-26T07:25:14.142Z,21.33
2018-05-26T07:26:14.144Z,21.40
2018-05-26T07:27:14.151Z,21.54
2018-05-26T07:28:14.158Z,21.66
2018-05-26T07:29:14.168Z,21.83
2018-05-26T07:30:14.169Z,22.01
2018-05-26T07:31:14.176Z,22.12
2018-05-26T07:32:14.184Z,22.33
2018-05-26T07:33:14.191Z,22.58
2018-05-26T07:34:14.198Z,22.77
2018-05-26T07:35:14.210Z,22.99
2018-05-26T07:36:14.214Z,23.33
2018-05-26T07:37:14.226Z,23.59
2018-05-26T07:38:14.229Z,23.70
2018-05-26T07:39:14.238Z,23.74
2018-05-26T07:40:14.247Z,23.81
2018-05-26T07:41:14.257Z,23.96
2018-05-26T07:42:14.262Z,23.92
2018-05-26T07:43:14.271Z,23.89
2018-05-26T07:44:14.297Z,23.79
2018-05-26T07:45:14.286Z,23.66
2018-05-26T07:46:14.370Z,23.47
2018-05-26T07:47:14.325Z,23.39
2018-05-26T07:48:14.393Z,23.14
2018-05-26T07:49:14.355Z,22.93
2018-05-26T07:50:14.325Z,22.86
2018-05-26T07:51:14.332Z,22.73
2018-05-26T07:52:14.342Z,22.99
2018-05-26T07:53:14.358Z,23.29
2018-05-26T07:54:14.358Z,23.49
2018-05-26T07:55:14.370Z,23.63
2018-05-26T07:56:14.376Z,23.82
2018-05-26T07:57:14.389Z,23.91
2018-05-26T07:58:14.394Z,24.10
2018-05-26T07:59:14.405Z,24.46
2018-05-26T08:00:14.424Z,24.69
2018-05-26T08:01:14.427Z,25.04
2018-05-26T08:02:14.438Z,25.56
2018-05-26T08:03:14.449Z,25.99
2018-05-26T08:04:14.462Z,26.34
2018-05-26T08:05:14.475Z,26.48
2018-05-26T08:06:14.487Z,26.53
2018-05-26T08:07:14.505Z,26.68
2018-05-26T08:08:14.514Z,26.97
2018-05-26T08:09:14.527Z,27.25
2018-05-26T08:10:14.541Z,27.40
2018-05-26T08:11:14.557Z,27.73
2018-05-26T08:12:14.575Z,27.86
2018-05-26T08:13:14.585Z,28.25
2018-05-26T08:14:14.601Z,28.57
2018-05-26T08:15:14.617Z,28.53
2018-05-26T08:16:14.631Z,28.12
2018-05-26T08:17:14.703Z,28.33
2018-05-26T08:18:14.663Z,28.04
2018-05-26T08:19:14.681Z,28.06
2018-05-26T08:20:14.697Z,28.15
2018-05-26T08:21:14.712Z,28.38
2018-05-26T08:22:14.727Z,28.62
2018-05-26T08:23:14.743Z,28.80
2018-05-26T08:24:14.760Z,29.07
2018-05-26T08:25:14.777Z,29.27
2018-05-26T08:26:14.791Z,29.43
2018-05-26T08:27:14.812Z,29.32
2018-05-26T08:28:14.827Z,28.77
2018-05-26T08:29:14.845Z,28.57
2018-05-26T08:30:14.860Z,28.59
2018-05-26T08:31:14.877Z,28.09
2018-05-26T08:32:14.892Z,27.72
2018-05-26T08:33:14.910Z,28.00
2018-05-26T08:34:14.927Z,28.15
2018-05-26T08:35:14.942Z,28.03
2018-05-26T08:36:14.958Z,28.23
2018-05-26T08:37:14.977Z,28.45
2018-05-26T08:38:14.991Z,28.19
2018-05-26T08:39:15.009Z,28.41
2018-05-26T08:40:15.026Z,28.59
2018-05-26T08:41:15.083Z,28.64
2018-05-26T08:42:15.061Z,28.56
2018-05-26T08:43:15.076Z,28.65
2018-05-26T08:44:15.091Z,28.83
2018-05-26T08:45:15.108Z,28.70
2018-05-26T08:46:15.124Z,28.64
2018-05-26T08:47:15.142Z,28.67
2018-05-26T08:48:15.160Z,28.23
2018-05-26T08:49:15.175Z,27.48
2018-05-26T08:50:15.192Z,27.35
2018-05-26T08:51:15.209Z,27.20
2018-05-26T08:52:15.224Z,27.16
2018-05-26T08:53:15.238Z,26.86
2018-05-26T08:54:15.258Z,26.61
2018-05-26T08:55:15.269Z,26.13
2018-05-26T08:56:15.285Z,25.91
2018-05-26T08:57:15.299Z,25.70
2018-05-26T08:58:15.313Z,25.51
2018-05-26T08:59:15.329Z,25.29
2018-05-26T09:00:15.340Z,25.09
2018-05-26T09:01:15.353Z,24.88
2018-05-26T09:02:15.425Z,24.59
2018-05-26T09:03:15.378Z,24.58
2018-05-26T09:04:15.393Z,24.58
2018-05-26T09:05:15.401Z,24.79
2018-05-26T09:06:15.411Z,24.75
2018-05-26T09:07:15.423Z,24.69
2018-05-26T09:08:15.433Z,24.81
2018-05-26T09:09:15.445Z,25.18
2018-05-26T09:10:15.456Z,25.58
2018-05-26T09:11:15.489Z,25.89
2018-05-26T09:12:15.480Z,26.19
2018-05-26T09:13:15.492Z,26.56
2018-05-26T09:14:15.506Z,26.96
2018-05-26T09:15:15.516Z,27.25
2018-05-26T09:16:15.577Z,27.44
2018-05-26T09:17:15.541Z,27.76
2018-05-26T09:18:15.553Z,27.97
2018-05-26T09:19:15.568Z,28.00
2018-05-26T09:20:15.579Z,28.10
2018-05-26T09:21:15.593Z,28.45
2018-05-26T09:22:15.606Z,28.20
2018-05-26T09:23:15.624Z,28.23
2018-05-26T09:24:15.638Z,28.49
2018-05-26T09:25:15.748Z,28.55
2018-05-26T09:26:15.668Z,28.06
2018-05-26T09:27:15.678Z,28.15
2018-05-26T09:28:15.694Z,27.76
2018-05-26T09:29:15.713Z,27.37
2018-05-26T09:30:15.736Z,27.38
2018-05-26T09:31:15.748Z,27.41
2018-05-26T09:32:15.753Z,27.63
2018-05-26T09:33:15.769Z,27.88
2018-05-26T09:34:15.782Z,27.83
2018-05-26T09:35:15.805Z,27.98
2018-05-26T09:36:15.812Z,28.03
2018-05-26T09:37:15.828Z,27.86
2018-05-26T09:38:15.841Z,27.64
2018-05-26T09:39:15.857Z,27.66
2018-05-26T09:40:15.872Z,27.72
2018-05-26T09:41:15.888Z,27.61
2018-05-26T09:42:15.901Z,27.67
2018-05-26T09:43:15.917Z,27.53
2018-05-26T09:44:15.932Z,27.72
2018-05-26T09:45:15.947Z,28.06
2018-05-26T09:46:15.962Z,27.95
2018-05-26T09:47:15.977Z,28.09
2018-05-26T09:48:15.992Z,28.19
2018-05-26T09:49:16.007Z,28.47
2018-05-26T09:50:16.021Z,28.60
2018-05-26T09:51:16.035Z,28.46
2018-05-26T09:52:16.055Z,28.20
2018-05-26T09:53:16.067Z,27.85
2018-05-26T09:54:16.080Z,27.68
2018-05-26T09:55:16.093Z,27.48
2018-05-26T09:56:16.110Z,27.60
2018-05-26T09:57:16.125Z,27.45
2018-05-26T09:58:16.139Z,27.33
2018-05-26T09:59:16.153Z,27.16
2018-05-26T10:00:16.167Z,27.05
2018-05-26T10:01:16.187Z,27.22
2018-05-26T10:02:16.196Z,27.18
2018-05-26T10:03:16.214Z,27.34
2018-05-26T10:04:16.259Z,27.28
2018-05-26T10:05:16.245Z,27.37
2018-05-26T10:06:16.252Z,27.72
2018-05-26T10:07:16.267Z,28.03
2018-05-26T10:08:16.281Z,28.22
2018-05-26T10:09:16.306Z,28.20
2018-05-26T10:10:16.309Z,28.12
2018-05-26T10:11:16.326Z,27.88
2018-05-26T10:12:16.338Z,27.76
2018-05-26T10:13:16.351Z,27.52
2018-05-26T10:14:16.363Z,27.18
2018-05-26T10:15:16.377Z,27.30
2018-05-26T10:16:16.391Z,27.55
2018-05-26T10:17:16.406Z,27.95
2018-05-26T10:18:16.419Z,28.31
2018-05-26T10:19:16.433Z,28.56
2018-05-26T10:20:16.446Z,28.65
2018-05-26T10:21:16.460Z,28.97
2018-05-26T10:22:16.473Z,29.22
2018-05-26T10:23:16.491Z,29.31
2018-05-26T10:24:16.501Z,29.65
2018-05-26T10:25:16.517Z,29.83
2018-05-26T10:26:16.569Z,30.06
2018-05-26T10:27:16.542Z,30.13
2018-05-26T10:28:16.557Z,30.18
2018-05-26T10:29:16.577Z,30.20
2018-05-26T10:30:16.585Z,30.20
2018-05-26T10:31:16.599Z,29.87
2018-05-26T10:32:16.617Z,29.18
2018-05-26T10:33:16.629Z,29.24
2018-05-26T10:34:16.641Z,29.09
2018-05-26T10:35:16.657Z,29.05
2018-05-26T10:36:16.671Z,29.13
2018-05-26T10:37:16.684Z,29.05
2018-05-26T10:38:16.697Z,29.34
2018-05-26T10:39:16.717Z,29.58
2018-05-26T10:40:16.730Z,29.73
2018-05-26T10:41:16.741Z,29.74
2018-05-26T10:42:16.755Z,29.67
2018-05-26T10:43:16.769Z,29.74
2018-05-26T10:44:16.787Z,29.68
2018-05-26T10:45:16.796Z,29.71
2018-05-26T10:46:16.811Z,30.06
2018-05-26T10:47:16.886Z,30.02
2018-05-26T10:48:16.838Z,30.11
2018-05-26T10:49:16.852Z,30.21
2018-05-26T10:50:16.866Z,30.17
2018-05-26T10:51:16.880Z,30.10
2018-05-26T10:52:16.893Z,30.24
2018-05-26T10:53:16.912Z,30.14
2018-05-26T10:54:16.920Z,29.94
2018-05-26T10:55:16.935Z,29.86
2018-05-26T10:56:16.956Z,29.65
2018-05-26T10:57:16.964Z,29.42
2018-05-26T10:58:16.978Z,29.31
2018-05-26T10:59:16.994Z,29.22
2018-05-26T11:00:17.006Z,29.16
2018-05-26T11:01:17.020Z,29.18
2018-05-26T11:02:17.033Z,29.31
2018-05-26T11:03:17.046Z,29.35
2018-05-26T11:04:17.078Z,29.37
2018-05-26T11:05:17.074Z,29.46
2018-05-26T11:06:17.101Z,29.27
2018-05-26T11:07:17.101Z,28.90
2018-05-26T11:08:17.114Z,28.60
2018-05-26T11:09:17.128Z,28.60
2018-05-26T11:10:17.140Z,28.45
2018-05-26T11:11:17.153Z,28.31
2018-05-26T11:12:17.167Z,28.37
2018-05-26T11:13:17.183Z,28.40
2018-05-26T11:14:17.192Z,28.57
2018-05-26T11:15:17.205Z,28.78
2018-05-26T11:16:17.232Z,28.89
2018-05-26T11:17:17.238Z,28.96
2018-05-26T11:18:17.243Z,29.15
2018-05-26T11:19:17.257Z,29.20
2018-05-26T11:20:17.325Z,29.18
2018-05-26T11:21:17.284Z,29.31
2018-05-26T11:22:17.295Z,29.46
2018-05-26T11:23:17.312Z,29.69
2018-05-26T11:24:17.339Z,29.89
2018-05-26T11:25:17.334Z,29.65
2018-05-26T11:26:17.368Z,29.86
2018-05-26T11:27:17.358Z,29.86
2018-05-26T11:28:17.378Z,29.87
2018-05-26T11:29:17.386Z,29.98
2018-05-26T11:30:17.397Z,29.98
2018-05-26T11:31:17.410Z,30.06
2018-05-26T11:32:17.425Z,30.18
2018-05-26T11:33:17.443Z,30.21
2018-05-26T11:34:17.451Z,30.02
2018-05-26T11:35:17.468Z,29.92
2018-05-26T11:36:17.477Z,29.99
2018-05-26T11:37:17.492Z,30.11
2018-05-26T11:38:17.503Z,30.11
2018-05-26T11:39:17.517Z,29.71
2018-05-26T11:40:17.531Z,29.59
2018-05-26T11:41:17.579Z,29.42
2018-05-26T11:42:17.557Z,29.59
2018-05-26T11:43:17.570Z,29.65
2018-05-26T11:44:17.583Z,29.67
2018-05-26T11:45:17.597Z,29.71
2018-05-26T11:46:17.609Z,29.15
2018-05-26T11:47:17.623Z,28.90
2018-05-26T11:48:17.636Z,28.68
2018-05-26T11:49:17.649Z,28.68
2018-05-26T11:50:17.662Z,28.57
2018-05-26T11:51:17.675Z,28.46
2018-05-26T11:52:17.687Z,28.19
2018-05-26T11:53:17.703Z,28.10
2018-05-26T11:54:17.713Z,28.10
2018-05-26T11:55:17.725Z,28.34
2018-05-26T11:56:17.738Z,28.45
2018-05-26T11:57:17.750Z,28.65
2018-05-26T11:58:17.763Z,29.09
2018-05-26T11:59:17.775Z,29.18
2018-05-26T12:00:17.787Z,29.21
2018-05-26T12:01:17.799Z,29.32
2018-05-26T12:02:17.811Z,29.39
2018-05-26T12:03:17.823Z,29.44
2018-05-26T12:04:17.837Z,29.68
2018-05-26T12:05:17.850Z,29.87
2018-05-26T12:06:17.861Z,29.95
2018-05-26T12:07:17.874Z,30.03
2018-05-26T12:08:17.886Z,30.17
2018-05-26T12:09:17.900Z,30.17
2018-05-26T12:10:17.911Z,30.26
2018-05-26T12:11:17.925Z,30.06
2018-05-26T12:12:17.935Z,29.98
2018-05-26T12:13:17.954Z,30.01
2018-05-26T12:14:17.960Z,30.08
2018-05-26T12:15:17.975Z,30.17
2018-05-26T12:16:17.990Z,30.14
2018-05-26T12:17:18.001Z,30.26
2018-05-26T12:18:18.019Z,30.43
2018-05-26T12:19:18.025Z,30.40
2018-05-26T12:20:18.039Z,30.44
2018-05-26T12:21:18.050Z,30.40
2018-05-26T12:22:18.062Z,30.38
2018-05-26T12:23:18.079Z,29.92
2018-05-26T12:24:18.094Z,29.30
2018-05-26T12:25:18.101Z,28.74
2018-05-26T12:26:18.113Z,28.82
2018-05-26T12:27:18.126Z,28.71
2018-05-26T12:28:18.142Z,28.83
2018-05-26T12:29:18.154Z,29.07
2018-05-26T12:30:18.162Z,29.13
2018-05-26T12:31:18.175Z,29.39
2018-05-26T12:32:18.188Z,29.69
2018-05-26T12:33:18.200Z,29.87
2018-05-26T12:34:18.211Z,30.11
2018-05-26T12:35:18.222Z,30.10
2018-05-26T12:36:18.235Z,30.11
2018-05-26T12:37:18.249Z,30.14
2018-05-26T12:38:18.259Z,29.96
2018-05-26T12:39:18.273Z,30.08
2018-05-26T12:40:18.286Z,29.96
2018-05-26T12:41:18.298Z,30.03
2018-05-26T12:42:18.310Z,30.13
2018-05-26T12:43:18.322Z,30.03
2018-05-26T12:44:18.339Z,29.99
2018-05-26T12:45:18.393Z,30.10
2018-05-26T12:46:18.372Z,30.17
2018-05-26T12:47:18.371Z,30.20
2018-05-26T12:48:18.384Z,30.32
2018-05-26T12:49:18.396Z,30.18
2018-05-26T12:50:18.407Z,30.27
2018-05-26T12:51:18.420Z,29.83
2018-05-26T12:52:18.477Z,29.39
2018-05-26T12:53:18.444Z,29.13